Time,TemperatureF,DewpointF,PressureIn,WindDirection,WindDirectionDegrees,WindSpeedMPH,WindSpeedGustMPH,Humidity,HourlyPrecipIn,Conditions,Clouds,dailyrainin,SoftwareType,DateUTC
2014-03-22 00:00:00,46.6,45.2,30.01,North,355,0.0,0.0,95,0.00,,,0.00,Wunderground v.1.15,2014-03-22 07:00:00,
2014-03-22 00:10:00,46.5,45.1,30.01,North,356,0.0,0.0,95,0.00,,,0.00,Wunderground v.1.15,2014-03-22 07:10:00,
2014-03-22 00:20:00,46.3,44.9,30.01,North,356,0.0,0.0,95,0.00,,,0.00,Wunderground v.1.15,2014-03-22 07:20:00,
2014-03-22 00:29:00,46.0,44.6,30.01,North,356,0.0,0.0,95,0.00,,,0.00,Wunderground v.1.15,2014-03-22 07:29:00,
2014-03-22 00:39:00,46.0,44.6,30.01,North,356,0.0,0.0,95,0.00,,,0.00,Wunderground v.1.15,2014-03-22 07:39:00,
2014-03-22 00:45:00,46.0,44.6,30.01,North,357,0.0,0.0,95,0.00,,,0.00,Wunderground v.1.15,2014-03-22 07:45:00,
2014-03-22 00:55:00,46.1,44.7,30.01,North,357,0.0,0.0,95,0.00,,,0.00,Wunderground v.1.15,2014-03-22 07:55:00,
2014-03-22 01:00:00,46.0,44.6,30.01,North,357,0.0,0.0,95,0.00,,,0.00,Wunderground v.1.15,2014-03-22 08:00:00,
2014-03-22 01:10:00,45.8,44.2,30.01,North,358,0.0,0.0,94,0.00,,,0.00,Wunderground v.1.15,2014-03-22 08:10:00,
2014-03-22 01:20:00,45.5,44.2,30.01,North,358,0.0,0.0,95,0.00,,,0.00,Wunderground v.1.15,2014-03-22 08:20:00,
2014-03-22 01:30:00,45.6,44.3,30.00,North,9,0.0,0.0,95,0.00,,,0.00,Wunderground v.1.15,2014-03-22 08:30:00,
2014-03-22 01:35:00,45.5,44.2,30.01,North,9,0.0,0.0,95,0.00,,,0.00,Wunderground v.1.15,2014-03-22 08:35:00,
2014-03-22 01:44:00,45.4,44.1,30.01,NNE,19,0.0,1.0,95,0.00,,,0.00,Wunderground v.1.15,2014-03-22 08:44:00,
2014-03-22 01:55:00,45.5,44.2,30.01,NNW,338,0.0,0.0,95,0.00,,,0.00,Wunderground v.1.15,2014-03-22 08:55:00,
2014-03-22 02:00:00,45.5,44.2,30.00,NNW,338,0.0,0.0,95,0.00,,,0.00,Wunderground v.1.15,2014-03-22 09:00:00,
2014-03-22 02:10:00,45.0,43.7,30.01,NNW,338,0.0,0.0,95,0.00,,,0.00,Wunderground v.1.15,2014-03-22 09:10:00,
2014-03-22 02:15:00,45.2,43.9,30.01,NNW,338,0.0,0.0,95,0.00,,,0.00,Wunderground v.1.15,2014-03-22 09:15:00,
2014-03-22 02:25:00,44.9,43.6,30.01,NNW,338,0.0,0.0,95,0.00,,,0.00,Wunderground v.1.15,2014-03-22 09:25:00,
2014-03-22 02:35:00,44.8,43.5,30.01,NNW,338,0.0,0.0,95,0.00,,,0.00,Wunderground v.1.15,2014-03-22 09:35:00,
2014-03-22 02:44:00,45.1,43.8,30.01,NNW,338,0.0,0.0,95,0.00,,,0.00,Wunderground v.1.15,2014-03-22 09:44:00,
2014-03-22 02:55:00,44.9,43.6,30.01,South,179,0.0,0.0,95,0.00,,,0.00,Wunderground v.1.15,2014-03-22 09:55:00,
2014-03-22 03:00:00,45.2,43.9,30.01,South,179,0.0,0.0,95,0.00,,,0.00,Wunderground v.1.15,2014-03-22 10:00:00,
2014-03-22 03:09:00,45.8,44.4,30.01,South,179,0.0,0.0,95,0.00,,,0.00,Wunderground v.1.15,2014-03-22 10:09:00,
2014-03-22 03:19:00,46.2,44.8,30.01,South,179,0.0,0.0,95,0.00,,,0.00,Wunderground v.1.15,2014-03-22 10:19:00,
2014-03-22 03:29:00,46.9,45.5,30.01,South,179,0.0,0.0,95,0.00,,,0.00,Wunderground v.1.15,2014-03-22 10:29:00,
2014-03-22 03:40:00,47.2,45.6,30.01,South,179,0.0,0.0,94,0.00,,,0.00,Wunderground v.1.15,2014-03-22 10:40:00,
2014-03-22 03:49:00,47.3,45.4,30.01,South,179,0.0,0.0,93,0.00,,,0.00,Wunderground v.1.15,2014-03-22 10:49:00,
2014-03-22 04:00:00,47.3,45.1,30.01,South,179,0.0,0.0,92,0.00,,,0.00,Wunderground v.1.15,2014-03-22 11:00:00,
2014-03-22 04:10:00,47.3,45.4,30.01,South,179,0.0,0.0,93,0.00,,,0.00,Wunderground v.1.15,2014-03-22 11:10:00,
2014-03-22 04:15:00,47.2,45.3,30.01,South,179,0.0,0.0,93,0.00,,,0.00,Wunderground v.1.15,2014-03-22 11:15:00,
2014-03-22 04:25:00,47.3,45.4,30.02,South,179,0.0,0.0,93,0.00,,,0.00,Wunderground v.1.15,2014-03-22 11:25:00,
2014-03-22 04:35:00,47.5,45.6,30.02,South,179,0.0,0.0,93,0.00,,,0.00,Wunderground v.1.15,2014-03-22 11:35:00,
2014-03-22 04:44:00,47.9,46.0,30.02,NNW,345,0.0,1.0,93,0.00,,,0.00,Wunderground v.1.15,2014-03-22 11:44:00,
2014-03-22 04:55:00,48.2,46.3,30.02,NNW,345,0.0,0.0,93,0.00,,,0.00,Wunderground v.1.15,2014-03-22 11:55:00,
2014-03-22 05:00:00,48.3,46.1,30.02,NNW,345,0.0,0.0,92,0.00,,,0.00,Wunderground v.1.15,2014-03-22 12:00:00,
2014-03-22 05:10:00,48.2,46.0,30.02,NNW,345,0.0,0.0,92,0.00,,,0.00,Wunderground v.1.15,2014-03-22 12:10:00,
2014-03-22 05:20:00,48.3,46.1,30.02,NW,326,0.0,0.0,92,0.00,,,0.00,Wunderground v.1.15,2014-03-22 12:20:00,
2014-03-22 05:29:00,48.5,46.3,30.03,NNW,327,0.0,0.0,92,0.00,,,0.00,Wunderground v.1.15,2014-03-22 12:29:00,
2014-03-22 05:39:00,48.5,46.3,30.03,NW,326,0.0,0.0,92,0.00,,,0.00,Wunderground v.1.15,2014-03-22 12:39:00,
2014-03-22 05:50:00,48.7,46.5,30.03,NW,314,0.0,2.0,92,0.00,,,0.00,Wunderground v.1.15,2014-03-22 12:50:00,
2014-03-22 06:00:00,49.0,46.5,30.04,SW,219,1.0,1.0,91,0.00,,,0.00,Wunderground v.1.15,2014-03-22 13:00:00,
2014-03-22 06:10:00,49.0,46.5,30.04,SW,219,0.0,0.0,91,0.00,,,0.00,Wunderground v.1.15,2014-03-22 13:10:00,
2014-03-22 06:20:00,49.0,46.5,30.04,SW,219,0.0,0.0,91,0.00,,,0.00,Wunderground v.1.15,2014-03-22 13:20:00,
2014-03-22 06:30:00,48.9,46.4,30.04,SW,215,1.0,1.0,91,0.00,,,0.00,Wunderground v.1.15,2014-03-22 13:30:00,
2014-03-22 06:39:00,48.9,46.4,30.05,WSW,246,1.0,1.0,91,0.00,,,0.00,Wunderground v.1.15,2014-03-22 13:39:00,
2014-03-22 06:49:00,48.9,46.1,30.05,SW,217,1.0,2.0,90,0.00,,,0.00,Wunderground v.1.15,2014-03-22 13:49:00,
2014-03-22 07:00:00,48.8,46.0,30.05,SE,146,1.0,1.0,90,0.00,,,0.00,Wunderground v.1.15,2014-03-22 14:00:00,
2014-03-22 07:10:00,48.6,45.8,30.06,SE,131,1.0,1.0,90,0.00,,,0.00,Wunderground v.1.15,2014-03-22 14:10:00,
2014-03-22 07:19:00,48.6,46.1,30.06,SE,139,1.0,1.0,91,0.00,,,0.00,Wunderground v.1.15,2014-03-22 14:19:00,
2014-03-22 07:29:00,48.5,45.7,30.06,South,184,1.0,2.0,90,0.00,,,0.00,Wunderground v.1.15,2014-03-22 14:29:00,
2014-03-22 07:39:00,48.5,45.7,30.07,SSE,148,1.0,2.0,90,0.00,,,0.00,Wunderground v.1.15,2014-03-22 14:39:00,
2014-03-22 07:45:00,48.4,45.6,30.07,SE,143,1.0,2.0,90,0.00,,,0.00,Wunderground v.1.15,2014-03-22 14:45:00,
2014-03-22 07:54:00,48.3,45.5,30.07,SE,139,1.0,1.0,90,0.00,,,0.00,Wunderground v.1.15,2014-03-22 14:54:00,
2014-03-22 08:00:00,48.4,45.9,30.07,SE,139,0.0,0.0,91,0.00,,,0.00,Wunderground v.1.15,2014-03-22 15:00:00,
2014-03-22 08:10:00,48.5,45.7,30.07,SE,139,0.0,0.0,90,0.00,,,0.00,Wunderground v.1.15,2014-03-22 15:10:00,
2014-03-22 08:19:00,48.8,46.0,30.08,SE,139,0.0,0.0,90,0.00,,,0.00,Wunderground v.1.15,2014-03-22 15:19:00,
2014-03-22 08:24:00,49.0,46.2,30.08,SE,139,0.0,0.0,90,0.00,,,0.00,Wunderground v.1.15,2014-03-22 15:24:00,
2014-03-22 08:34:00,49.1,46.0,30.08,SE,127,1.0,1.0,89,0.00,,,0.00,Wunderground v.1.15,2014-03-22 15:34:00,
2014-03-22 08:45:00,49.4,46.0,30.08,SW,231,1.0,1.0,88,0.00,,,0.00,Wunderground v.1.15,2014-03-22 15:45:00,
2014-03-22 08:54:00,49.8,46.4,30.08,SW,224,0.0,1.0,88,0.00,,,0.00,Wunderground v.1.15,2014-03-22 15:54:00,
2014-03-22 09:00:00,50.0,46.6,30.08,SW,230,0.0,3.0,88,0.00,,,0.00,Wunderground v.1.15,2014-03-22 16:00:00,
2014-03-22 09:10:00,50.0,46.6,30.08,SSE,166,2.0,3.0,88,0.00,,,0.00,Wunderground v.1.15,2014-03-22 16:10:00,
2014-03-22 09:14:00,50.5,46.8,30.08,WSW,250,2.0,3.0,87,0.00,,,0.00,Wunderground v.1.15,2014-03-22 16:14:00,
2014-03-22 09:25:00,50.9,46.6,30.09,SSW,200,2.0,2.0,85,0.00,,,0.00,Wunderground v.1.15,2014-03-22 16:25:00,
2014-03-22 09:34:00,51.1,46.7,30.09,West,262,2.0,3.0,85,0.00,,,0.00,Wunderground v.1.15,2014-03-22 16:34:00,
2014-03-22 09:45:00,52.2,47.2,30.09,SW,233,2.0,3.0,83,0.00,,,0.00,Wunderground v.1.15,2014-03-22 16:45:00,
2014-03-22 09:49:00,52.4,47.1,30.09,West,272,2.0,3.0,82,0.00,,,0.00,Wunderground v.1.15,2014-03-22 16:49:00,
2014-03-22 10:00:00,52.7,46.7,30.10,SSW,197,1.0,1.0,80,0.00,,,0.00,Wunderground v.1.15,2014-03-22 17:00:00,
2014-03-22 10:10:00,53.3,47.3,30.10,WNW,286,2.0,2.0,80,0.00,,,0.00,Wunderground v.1.15,2014-03-22 17:10:00,
2014-03-22 10:20:00,54.1,47.4,30.10,SSW,198,1.0,1.0,78,0.00,,,0.00,Wunderground v.1.15,2014-03-22 17:20:00,
2014-03-22 10:30:00,54.6,47.2,30.10,SSW,207,2.0,3.0,76,0.00,,,0.00,Wunderground v.1.15,2014-03-22 17:30:00,
2014-03-22 10:35:00,54.7,47.3,30.10,SW,223,2.0,4.0,76,0.00,,,0.00,Wunderground v.1.15,2014-03-22 17:35:00,
2014-03-22 10:44:00,54.6,47.5,30.10,WSW,245,3.0,3.0,77,0.00,,,0.00,Wunderground v.1.15,2014-03-22 17:44:00,
2014-03-22 10:54:00,55.9,47.7,30.10,SSE,168,2.0,3.0,74,0.00,,,0.00,Wunderground v.1.15,2014-03-22 17:54:00,
2014-03-22 11:00:00,56.6,47.7,30.10,NW,325,2.0,2.0,72,0.00,,,0.00,Wunderground v.1.15,2014-03-22 18:00:00,
2014-03-22 11:10:00,57.0,47.3,30.10,WSW,243,2.0,2.0,70,0.00,,,0.00,Wunderground v.1.15,2014-03-22 18:10:00,
2014-03-22 11:20:00,57.3,47.6,30.11,WNW,299,2.0,3.0,70,0.00,,,0.00,Wunderground v.1.15,2014-03-22 18:20:00,
2014-03-22 11:29:00,58.3,48.2,30.10,SW,219,2.0,2.0,69,0.00,,,0.00,Wunderground v.1.15,2014-03-22 18:29:00,
2014-03-22 11:40:00,58.7,47.4,30.11,SW,219,2.0,2.0,66,0.00,,,0.00,Wunderground v.1.15,2014-03-22 18:40:00,
2014-03-22 11:49:00,59.1,47.3,30.11,SW,231,3.0,3.0,65,0.00,,,0.00,Wunderground v.1.15,2014-03-22 18:49:00,
2014-03-22 11:55:00,59.2,48.2,30.11,SW,221,3.0,4.0,67,0.00,,,0.00,Wunderground v.1.15,2014-03-22 18:55:00,
2014-03-22 12:00:00,59.5,47.7,30.10,WNW,290,3.0,3.0,65,0.00,,,0.00,Wunderground v.1.15,2014-03-22 19:00:00,
2014-03-22 12:09:00,60.0,47.4,30.10,SW,236,3.0,3.0,63,0.00,,,0.00,Wunderground v.1.15,2014-03-22 19:09:00,
2014-03-22 12:19:00,60.6,47.9,30.10,WNW,296,2.0,2.0,63,0.00,,,0.00,Wunderground v.1.15,2014-03-22 19:19:00,
2014-03-22 12:29:00,60.9,48.2,30.10,WSW,242,3.0,3.0,63,0.00,,,0.00,Wunderground v.1.15,2014-03-22 19:29:00,
2014-03-22 12:39:00,61.4,48.3,30.10,West,264,3.0,5.0,62,0.00,,,0.00,Wunderground v.1.15,2014-03-22 19:39:00,
2014-03-22 12:49:00,60.9,47.8,30.10,WNW,289,4.0,4.0,62,0.00,,,0.00,Wunderground v.1.15,2014-03-22 19:49:00,
2014-03-22 13:00:00,61.2,48.1,30.10,WSW,253,3.0,4.0,62,0.00,,,0.00,Wunderground v.1.15,2014-03-22 20:00:00,
2014-03-22 13:09:00,61.4,48.3,30.09,West,273,3.0,3.0,62,0.00,,,0.00,Wunderground v.1.15,2014-03-22 20:09:00,
2014-03-22 13:20:00,61.9,49.2,30.09,NW,310,3.0,3.0,63,0.00,,,0.00,Wunderground v.1.15,2014-03-22 20:20:00,
2014-03-22 13:30:00,62.3,48.7,30.09,West,269,4.0,4.0,61,0.00,,,0.00,Wunderground v.1.15,2014-03-22 20:30:00,
2014-03-22 13:39:00,63.2,48.6,30.09,WNW,294,4.0,6.0,59,0.00,,,0.00,Wunderground v.1.15,2014-03-22 20:39:00,
2014-03-22 13:50:00,63.4,48.8,30.08,SSW,206,4.0,4.0,59,0.00,,,0.00,Wunderground v.1.15,2014-03-22 20:50:00,
2014-03-22 14:00:00,63.5,48.5,30.08,SSW,203,4.0,4.0,58,0.00,,,0.00,Wunderground v.1.15,2014-03-22 21:00:00,
2014-03-22 14:09:00,64.3,48.7,30.08,WSW,241,3.0,3.0,57,0.00,,,0.00,Wunderground v.1.15,2014-03-22 21:09:00,
2014-03-22 14:15:00,64.9,47.9,30.07,WNW,300,3.0,5.0,54,0.00,,,0.00,Wunderground v.1.15,2014-03-22 21:15:00,
2014-03-22 14:25:00,64.9,48.3,30.07,SSW,212,4.0,5.0,55,0.00,,,0.00,Wunderground v.1.15,2014-03-22 21:25:00,
2014-03-22 14:30:00,64.9,47.9,30.07,WSW,248,4.0,5.0,54,0.00,,,0.00,Wunderground v.1.15,2014-03-22 21:30:00,
2014-03-22 14:40:00,65.8,47.7,30.07,WSW,251,4.0,4.0,52,0.00,,,0.00,Wunderground v.1.15,2014-03-22 21:40:00,
2014-03-22 14:50:00,65.3,47.2,30.07,WSW,256,4.0,4.0,52,0.00,,,0.00,Wunderground v.1.15,2014-03-22 21:50:00,
2014-03-22 14:54:00,65.4,46.8,30.07,WSW,244,4.0,5.0,51,0.00,,,0.00,Wunderground v.1.15,2014-03-22 21:54:00,
2014-03-22 15:05:00,65.6,46.5,30.07,West,261,5.0,6.0,50,0.00,,,0.00,Wunderground v.1.15,2014-03-22 22:05:00,
2014-03-22 15:15:00,65.5,46.9,30.07,West,259,5.0,5.0,51,0.00,,,0.00,Wunderground v.1.15,2014-03-22 22:15:00,
2014-03-22 15:25:00,65.5,48.9,30.07,WNW,301,5.0,5.0,55,0.00,,,0.00,Wunderground v.1.15,2014-03-22 22:25:00,
2014-03-22 15:29:00,65.0,49.4,30.07,NW,316,6.0,6.0,57,0.00,,,0.00,Wunderground v.1.15,2014-03-22 22:29:00,
2014-03-22 15:39:00,64.4,49.3,30.07,NW,320,7.0,7.0,58,0.00,,,0.00,Wunderground v.1.15,2014-03-22 22:39:00,
2014-03-22 15:50:00,64.1,49.9,30.06,WNW,301,6.0,9.0,60,0.00,,,0.00,Wunderground v.1.15,2014-03-22 22:50:00,
2014-03-22 16:00:00,64.2,49.6,30.06,WNW,288,6.0,6.0,59,0.00,,,0.00,Wunderground v.1.15,2014-03-22 23:00:00,
2014-03-22 16:10:00,64.5,50.3,30.06,WNW,297,6.0,10.0,60,0.00,,,0.00,Wunderground v.1.15,2014-03-22 23:10:00,
2014-03-22 16:20:00,64.8,49.7,30.06,WSW,248,6.0,6.0,58,0.00,,,0.00,Wunderground v.1.15,2014-03-22 23:20:00,
2014-03-22 16:30:00,65.1,48.0,30.06,NW,307,5.0,7.0,54,0.00,,,0.00,Wunderground v.1.15,2014-03-22 23:30:00,
2014-03-22 16:40:00,64.9,48.8,30.06,NW,321,6.0,6.0,56,0.00,,,0.00,Wunderground v.1.15,2014-03-22 23:40:00,
2014-03-22 16:49:00,64.7,48.6,30.06,West,279,5.0,5.0,56,0.00,,,0.00,Wunderground v.1.15,2014-03-22 23:49:00,
2014-03-22 16:55:00,65.3,48.7,30.06,WSW,254,5.0,5.0,55,0.00,,,0.00,Wunderground v.1.15,2014-03-22 23:55:00,
2014-03-22 17:00:00,65.3,48.7,30.06,WNW,290,4.0,4.0,55,0.00,,,0.00,Wunderground v.1.15,2014-03-23 00:00:00,
2014-03-22 17:10:00,65.0,48.4,30.06,WNW,288,5.0,5.0,55,0.00,,,0.00,Wunderground v.1.15,2014-03-23 00:10:00,
2014-03-22 17:20:00,64.7,48.6,30.06,West,261,5.0,10.0,56,0.00,,,0.00,Wunderground v.1.15,2014-03-23 00:20:00,
2014-03-22 17:30:00,64.2,48.6,30.06,WNW,299,6.0,6.0,57,0.00,,,0.00,Wunderground v.1.15,2014-03-23 00:30:00,
2014-03-22 17:35:00,64.1,48.5,30.06,WNW,295,6.0,6.0,57,0.00,,,0.00,Wunderground v.1.15,2014-03-23 00:35:00,
2014-03-22 17:44:00,64.3,48.3,30.06,WNW,289,4.0,5.0,56,0.00,,,0.00,Wunderground v.1.15,2014-03-23 00:44:00,
2014-03-22 17:55:00,64.2,48.6,30.06,WNW,290,5.0,8.0,57,0.00,,,0.00,Wunderground v.1.15,2014-03-23 00:55:00,
2014-03-22 18:00:00,63.4,48.4,30.06,NW,306,6.0,6.0,58,0.00,,,0.00,Wunderground v.1.15,2014-03-23 01:00:00,
2014-03-22 18:10:00,62.7,48.6,30.06,West,278,6.0,6.0,60,0.00,,,0.00,Wunderground v.1.15,2014-03-23 01:10:00,
2014-03-22 18:19:00,62.6,48.5,30.06,WNW,296,5.0,5.0,60,0.00,,,0.00,Wunderground v.1.15,2014-03-23 01:19:00,
2014-03-22 18:25:00,62.2,47.7,30.07,NW,307,5.0,5.0,59,0.00,,,0.00,Wunderground v.1.15,2014-03-23 01:25:00,
2014-03-22 18:35:00,61.8,47.8,30.07,NW,309,5.0,6.0,60,0.00,,,0.00,Wunderground v.1.15,2014-03-23 01:35:00,
2014-03-22 18:45:00,61.1,48.4,30.07,West,276,4.0,4.0,63,0.00,,,0.00,Wunderground v.1.15,2014-03-23 01:45:00,
2014-03-22 18:54:00,60.7,48.0,30.07,West,281,3.0,4.0,63,0.00,,,0.00,Wunderground v.1.15,2014-03-23 01:54:00,
2014-03-22 19:00:00,60.3,48.5,30.07,West,281,3.0,3.0,65,0.00,,,0.00,Wunderground v.1.15,2014-03-23 02:00:00,
2014-03-22 19:09:00,59.5,48.5,30.07,WNW,295,1.0,1.0,67,0.00,,,0.00,Wunderground v.1.15,2014-03-23 02:09:00,
2014-03-22 19:19:00,58.5,48.0,30.08,West,274,1.0,1.0,68,0.00,,,0.00,Wunderground v.1.15,2014-03-23 02:19:00,
2014-03-22 19:29:00,57.7,48.0,30.08,WSW,254,2.0,2.0,70,0.00,,,0.00,Wunderground v.1.15,2014-03-23 02:29:00,
2014-03-22 19:40:00,57.2,47.5,30.08,WNW,285,2.0,2.0,70,0.00,,,0.00,Wunderground v.1.15,2014-03-23 02:40:00,
2014-03-22 19:49:00,56.6,47.7,30.08,West,261,2.0,2.0,72,0.00,,,0.00,Wunderground v.1.15,2014-03-23 02:49:00,
2014-03-22 20:00:00,55.8,47.3,30.08,West,273,1.0,1.0,73,0.00,,,0.00,Wunderground v.1.15,2014-03-23 03:00:00,
2014-03-22 20:09:00,55.0,47.2,30.09,WNW,282,0.0,0.0,75,0.00,,,0.00,Wunderground v.1.15,2014-03-23 03:09:00,
2014-03-22 20:20:00,54.5,47.1,30.09,NNW,329,0.0,0.0,76,0.00,,,0.00,Wunderground v.1.15,2014-03-23 03:20:00,
2014-03-22 20:30:00,54.0,47.0,30.10,NNW,329,0.0,0.0,77,0.00,,,0.00,Wunderground v.1.15,2014-03-23 03:30:00,
2014-03-22 20:40:00,53.2,46.9,30.11,NNW,329,0.0,0.0,79,0.00,,,0.00,Wunderground v.1.15,2014-03-23 03:40:00,
2014-03-22 20:49:00,52.8,46.8,30.11,NNW,329,0.0,0.0,80,0.00,,,0.00,Wunderground v.1.15,2014-03-23 03:49:00,
2014-03-22 21:00:00,52.7,46.7,30.11,NNW,329,0.0,0.0,80,0.00,,,0.00,Wunderground v.1.15,2014-03-23 04:00:00,
2014-03-22 21:05:00,52.6,46.6,30.11,NNW,329,0.0,0.0,80,0.00,,,0.00,Wunderground v.1.15,2014-03-23 04:05:00,
2014-03-22 21:10:00,52.5,46.8,30.11,NNW,329,0.0,0.0,81,0.00,,,0.00,Wunderground v.1.15,2014-03-23 04:10:00,
2014-03-22 21:15:00,52.2,46.5,30.11,NNW,329,0.0,0.0,81,0.00,,,0.00,Wunderground v.1.15,2014-03-23 04:15:00,
2014-03-22 21:24:00,51.6,46.0,30.11,NNW,329,0.0,0.0,81,0.00,,,0.00,Wunderground v.1.15,2014-03-23 04:24:00,
2014-03-22 21:34:00,51.2,46.2,30.11,NNW,335,0.0,0.0,83,0.00,,,0.00,Wunderground v.1.15,2014-03-23 04:34:00,
2014-03-22 21:45:00,50.7,46.0,30.11,NNW,335,0.0,0.0,84,0.00,,,0.00,Wunderground v.1.15,2014-03-23 04:45:00,
2014-03-22 21:50:00,50.6,45.9,30.11,NNW,335,0.0,0.0,84,0.00,,,0.00,Wunderground v.1.15,2014-03-23 04:50:00,
2014-03-22 22:01:00,49.5,44.9,30.11,NNW,335,0.0,0.0,84,0.00,,,0.00,Wunderground v.1.15,2014-03-23 05:01:00,
2014-03-22 22:10:00,49.6,45.9,30.11,NNW,335,0.0,0.0,87,0.00,,,0.00,Wunderground v.1.15,2014-03-23 05:10:00,
2014-03-22 22:19:00,49.6,45.6,30.12,NNW,335,0.0,0.0,86,0.00,,,0.00,Wunderground v.1.15,2014-03-23 05:19:00,
2014-03-22 22:29:00,48.9,45.2,30.12,NNW,335,0.0,0.0,87,0.00,,,0.00,Wunderground v.1.15,2014-03-23 05:29:00,
2014-03-22 22:34:00,48.8,45.4,30.12,NNW,335,0.0,0.0,88,0.00,,,0.00,Wunderground v.1.15,2014-03-23 05:34:00,
2014-03-22 22:44:00,48.5,45.4,30.13,NNW,335,0.0,0.0,89,0.00,,,0.00,Wunderground v.1.15,2014-03-23 05:44:00,
2014-03-22 22:55:00,48.2,45.1,30.13,NNW,335,0.0,0.0,89,0.00,,,0.00,Wunderground v.1.15,2014-03-23 05:55:00,
2014-03-22 23:00:00,47.9,45.1,30.13,NNW,335,0.0,0.0,90,0.00,,,0.00,Wunderground v.1.15,2014-03-23 06:00:00,
2014-03-22 23:10:00,47.7,45.2,30.13,NNW,335,0.0,0.0,91,0.00,,,0.00,Wunderground v.1.15,2014-03-23 06:10:00,
2014-03-22 23:15:00,47.6,45.1,30.13,NNW,335,0.0,0.0,91,0.00,,,0.00,Wunderground v.1.15,2014-03-23 06:15:00,
2014-03-22 23:25:00,47.9,45.4,30.14,NNW,335,0.0,0.0,91,0.00,,,0.00,Wunderground v.1.15,2014-03-23 06:25:00,
2014-03-22 23:34:00,48.2,46.0,30.13,NNW,335,0.0,0.0,92,0.00,,,0.00,Wunderground v.1.15,2014-03-23 06:34:00,
2014-03-22 23:45:00,48.0,45.5,30.13,ENE,68,0.0,0.0,91,0.00,,,0.00,Wunderground v.1.15,2014-03-23 06:45:00,
2014-03-22 23:55:00,47.7,44.9,30.14,ENE,67,0.0,0.0,90,0.00,,,0.00,Wunderground v.1.15,2014-03-23 06:55:00,